sensor_id;sensor_type;location;lat;lon;timestamp;temperature;humidity
2477;DHT22;1249;51.270;6.756;2022-10-24T00:02:07;18.20;99.90
2477;DHT22;1249;51.270;6.756;2022-10-24T00:04:35;18.20;99.90
2477;DHT22;1249;51.270;6.756;2022-10-24T00:07:05;18.30;99.90
2477;DHT22;1249;51.270;6.756;2022-10-24T00:09:33;18.20;99.90
2477;DHT22;1249;51.270;6.756;2022-10-24T00:12:01;18.10;99.90
2477;DHT22;1249;51.270;6.756;2022-10-24T00:14:28;18.10;99.90
2477;DHT22;1249;51.270;6.756;2022-10-24T00:16:55;18.20;99.90
2477;DHT22;1249;51.270;6.756;2022-10-24T00:19:22;18.30;99.90
2477;DHT22;1249;51.270;6.756;2022-10-24T00:21:48;18.20;99.90
2477;DHT22;1249;51.270;6.756;2022-10-24T00:24:17;18.20;99.90
2477;DHT22;1249;51.270;6.756;2022-10-24T00:26:43;18.20;99.90
2477;DHT22;1249;51.270;6.756;2022-10-24T00:29:11;18.20;99.90
2477;DHT22;1249;51.270;6.756;2022-10-24T00:31:38;18.20;99.90
2477;DHT22;1249;51.270;6.756;2022-10-24T00:34:05;18.20;99.90
2477;DHT22;1249;51.270;6.756;2022-10-24T00:36:31;18.10;99.90
2477;DHT22;1249;51.270;6.756;2022-10-24T00:38:58;18.10;99.90
2477;DHT22;1249;51.270;6.756;2022-10-24T00:41:29;18.20;99.90
2477;DHT22;1249;51.270;6.756;2022-10-24T00:44:16;18.10;99.90
2477;DHT22;1249;51.270;6.756;2022-10-24T00:46:47;18.20;99.90
2477;DHT22;1249;51.270;6.756;2022-10-24T00:49:16;18.20;99.90
2477;DHT22;1249;51.270;6.756;2022-10-24T00:51:45;18.10;99.90
2477;DHT22;1249;51.270;6.756;2022-10-24T00:54:14;18.10;99.90
2477;DHT22;1249;51.270;6.756;2022-10-24T00:56:46;18.10;99.90
2477;DHT22;1249;51.270;6.756;2022-10-24T00:59:17;18.20;99.90
2477;DHT22;1249;51.270;6.756;2022-10-24T01:01:45;18.20;99.90
2477;DHT22;1249;51.270;6.756;2022-10-24T01:04:13;18.10;99.90
2477;DHT22;1249;51.270;6.756;2022-10-24T01:06:46;18.10;99.90
2477;DHT22;1249;51.270;6.756;2022-10-24T01:09:27;18.10;99.90
2477;DHT22;1249;51.270;6.756;2022-10-24T01:12:07;18.10;99.90
2477;DHT22;1249;51.270;6.756;2022-10-24T01:14:44;18.10;99.90
2477;DHT22;1249;51.270;6.756;2022-10-24T01:17:16;18.20;99.90
2477;DHT22;1249;51.270;6.756;2022-10-24T01:20:13;18.10;99.90
2477;DHT22;1249;51.270;6.756;2022-10-24T01:22:52;18.00;99.90
2477;DHT22;1249;51.270;6.756;2022-10-24T01:25:26;18.00;99.90
2477;DHT22;1249;51.270;6.756;2022-10-24T01:28:02;18.00;99.90
2477;DHT22;1249;51.270;6.756;2022-10-24T01:30:36;18.10;99.90
2477;DHT22;1249;51.270;6.756;2022-10-24T01:33:07;18.20;99.90
2477;DHT22;1249;51.270;6.756;2022-10-24T01:35:43;18.10;99.90
2477;DHT22;1249;51.270;6.756;2022-10-24T01:38:16;18.00;99.90
2477;DHT22;1249;51.270;6.756;2022-10-24T01:40:50;18.10;99.90
2477;DHT22;1249;51.270;6.756;2022-10-24T01:43:23;18.10;99.90
2477;DHT22;1249;51.270;6.756;2022-10-24T01:45:57;18.00;99.90
2477;DHT22;1249;51.270;6.756;2022-10-24T01:48:25;17.90;99.90
2477;DHT22;1249;51.270;6.756;2022-10-24T01:50:55;18.00;99.90
2477;DHT22;1249;51.270;6.756;2022-10-24T01:53:23;18.00;99.90
2477;DHT22;1249;51.270;6.756;2022-10-24T01:55:53;18.00;99.90
2477;DHT22;1249;51.270;6.756;2022-10-24T01:58:21;17.90;99.90
2477;DHT22;1249;51.270;6.756;2022-10-24T02:00:50;18.00;99.90
2477;DHT22;1249;51.270;6.756;2022-10-24T02:03:22;18.00;99.90
2477;DHT22;1249;51.270;6.756;2022-10-24T02:08:21;18.10;99.90
2477;DHT22;1249;51.270;6.756;2022-10-24T02:10:53;18.00;99.90
2477;DHT22;1249;51.270;6.756;2022-10-24T02:13:26;17.90;99.90
2477;DHT22;1249;51.270;6.756;2022-10-24T02:15:57;18.00;99.90
2477;DHT22;1249;51.270;6.756;2022-10-24T02:18:27;18.00;99.90
2477;DHT22;1249;51.270;6.756;2022-10-24T02:20:58;18.00;99.90
2477;DHT22;1249;51.270;6.756;2022-10-24T02:23:33;18.00;99.90
2477;DHT22;1249;51.270;6.756;2022-10-24T02:26:07;18.00;99.90
2477;DHT22;1249;51.270;6.756;2022-10-24T02:28:41;18.00;99.90
2477;DHT22;1249;51.270;6.756;2022-10-24T02:31:11;18.00;99.90
2477;DHT22;1249;51.270;6.756;2022-10-24T02:33:43;18.00;99.90
2477;DHT22;1249;51.270;6.756;2022-10-24T02:36:12;18.10;99.90
2477;DHT22;1249;51.270;6.756;2022-10-24T02:38:43;18.00;99.90
2477;DHT22;1249;51.270;6.756;2022-10-24T02:41:14;18.00;99.90
2477;DHT22;1249;51.270;6.756;2022-10-24T02:43:43;18.00;99.90
2477;DHT22;1249;51.270;6.756;2022-10-24T02:46:12;18.00;99.90
2477;DHT22;1249;51.270;6.756;2022-10-24T02:48:44;18.00;99.90
2477;DHT22;1249;51.270;6.756;2022-10-24T02:51:13;17.90;99.90
2477;DHT22;1249;51.270;6.756;2022-10-24T02:53:40;17.90;99.90
2477;DHT22;1249;51.270;6.756;2022-10-24T02:56:07;17.90;99.90
2477;DHT22;1249;51.270;6.756;2022-10-24T02:58:33;18.00;99.90
2477;DHT22;1249;51.270;6.756;2022-10-24T03:01:00;18.00;99.90
2477;DHT22;1249;51.270;6.756;2022-10-24T03:03:27;17.90;99.90
2477;DHT22;1249;51.270;6.756;2022-10-24T03:05:55;17.90;99.90
2477;DHT22;1249;51.270;6.756;2022-10-24T03:08:22;17.90;99.90
2477;DHT22;1249;51.270;6.756;2022-10-24T03:10:48;17.90;99.90
2477;DHT22;1249;51.270;6.756;2022-10-24T03:13:15;17.90;99.90
2477;DHT22;1249;51.270;6.756;2022-10-24T03:15:42;17.80;99.90
2477;DHT22;1249;51.270;6.756;2022-10-24T03:18:09;17.90;99.90
2477;DHT22;1249;51.270;6.756;2022-10-24T03:20:35;17.90;99.90
2477;DHT22;1249;51.270;6.756;2022-10-24T03:23:04;17.90;99.90
2477;DHT22;1249;51.270;6.756;2022-10-24T03:25:31;17.90;99.90
2477;DHT22;1249;51.270;6.756;2022-10-24T03:27:57;18.00;99.90
2477;DHT22;1249;51.270;6.756;2022-10-24T03:30:24;17.90;99.90
2477;DHT22;1249;51.270;6.756;2022-10-24T03:32:51;17.80;99.90
2477;DHT22;1249;51.270;6.756;2022-10-24T03:35:18;17.90;99.90
2477;DHT22;1249;51.270;6.756;2022-10-24T03:37:44;17.90;99.90
2477;DHT22;1249;51.270;6.756;2022-10-24T03:40:12;17.90;99.90
2477;DHT22;1249;51.270;6.756;2022-10-24T03:42:39;17.90;99.90
2477;DHT22;1249;51.270;6.756;2022-10-24T03:45:07;17.90;99.90
2477;DHT22;1249;51.270;6.756;2022-10-24T03:47:34;17.90;99.90
2477;DHT22;1249;51.270;6.756;2022-10-24T03:50:00;17.90;99.90
2477;DHT22;1249;51.270;6.756;2022-10-24T03:52:27;17.90;99.90
2477;DHT22;1249;51.270;6.756;2022-10-24T03:54:54;17.80;99.90
2477;DHT22;1249;51.270;6.756;2022-10-24T03:57:22;17.80;99.90
2477;DHT22;1249;51.270;6.756;2022-10-24T03:59:49;17.80;99.90
2477;DHT22;1249;51.270;6.756;2022-10-24T04:02:15;17.80;99.90
2477;DHT22;1249;51.270;6.756;2022-10-24T04:04:42;17.80;99.90
2477;DHT22;1249;51.270;6.756;2022-10-24T04:07:09;17.80;99.90
2477;DHT22;1249;51.270;6.756;2022-10-24T04:09:36;17.80;99.90
2477;DHT22;1249;51.270;6.756;2022-10-24T04:12:03;17.80;99.90
2477;DHT22;1249;51.270;6.756;2022-10-24T04:14:31;17.80;99.90
2477;DHT22;1249;51.270;6.756;2022-10-24T04:16:58;17.80;99.90
2477;DHT22;1249;51.270;6.756;2022-10-24T04:19:25;17.80;99.90
2477;DHT22;1249;51.270;6.756;2022-10-24T04:21:52;17.90;99.90
2477;DHT22;1249;51.270;6.756;2022-10-24T04:26:47;17.80;99.90
2477;DHT22;1249;51.270;6.756;2022-10-24T04:29:17;17.70;99.90
2477;DHT22;1249;51.270;6.756;2022-10-24T04:31:45;17.70;99.90
2477;DHT22;1249;51.270;6.756;2022-10-24T04:34:11;17.70;99.90
2477;DHT22;1249;51.270;6.756;2022-10-24T04:36:38;17.70;99.90
2477;DHT22;1249;51.270;6.756;2022-10-24T04:39:05;17.70;99.90
2477;DHT22;1249;51.270;6.756;2022-10-24T04:41:32;17.70;99.90
2477;DHT22;1249;51.270;6.756;2022-10-24T04:43:59;17.70;99.90
2477;DHT22;1249;51.270;6.756;2022-10-24T04:46:25;17.70;99.90
2477;DHT22;1249;51.270;6.756;2022-10-24T04:48:53;17.70;99.90
2477;DHT22;1249;51.270;6.756;2022-10-24T04:51:20;17.70;99.90
2477;DHT22;1249;51.270;6.756;2022-10-24T04:53:47;17.70;99.90
2477;DHT22;1249;51.270;6.756;2022-10-24T04:56:14;17.70;99.90
2477;DHT22;1249;51.270;6.756;2022-10-24T04:58:40;17.70;99.90
2477;DHT22;1249;51.270;6.756;2022-10-24T05:01:07;17.70;99.90
2477;DHT22;1249;51.270;6.756;2022-10-24T05:03:34;17.70;99.90
2477;DHT22;1249;51.270;6.756;2022-10-24T05:06:02;17.70;99.90
2477;DHT22;1249;51.270;6.756;2022-10-24T05:08:29;17.70;99.90
2477;DHT22;1249;51.270;6.756;2022-10-24T05:10:55;17.70;99.90
2477;DHT22;1249;51.270;6.756;2022-10-24T05:13:22;17.70;99.90
2477;DHT22;1249;51.270;6.756;2022-10-24T05:15:49;17.70;99.90
2477;DHT22;1249;51.270;6.756;2022-10-24T05:18:16;17.70;99.90
2477;DHT22;1249;51.270;6.756;2022-10-24T05:20:42;17.70;99.90
2477;DHT22;1249;51.270;6.756;2022-10-24T05:23:11;17.70;99.90
2477;DHT22;1249;51.270;6.756;2022-10-24T05:25:38;17.70;99.90
2477;DHT22;1249;51.270;6.756;2022-10-24T05:28:05;17.70;99.90
2477;DHT22;1249;51.270;6.756;2022-10-24T05:30:31;17.70;99.90
2477;DHT22;1249;51.270;6.756;2022-10-24T05:32:58;17.70;99.90
2477;DHT22;1249;51.270;6.756;2022-10-24T05:35:25;17.80;99.90
2477;DHT22;1249;51.270;6.756;2022-10-24T05:37:51;17.90;99.90
2477;DHT22;1249;51.270;6.756;2022-10-24T05:40:19;18.00;99.90
2477;DHT22;1249;51.270;6.756;2022-10-24T05:42:46;18.10;99.90
2477;DHT22;1249;51.270;6.756;2022-10-24T05:45:14;18.20;99.90
2477;DHT22;1249;51.270;6.756;2022-10-24T05:47:41;18.20;99.90
2477;DHT22;1249;51.270;6.756;2022-10-24T05:50:08;18.30;99.90
2477;DHT22;1249;51.270;6.756;2022-10-24T05:52:35;18.40;99.90
2477;DHT22;1249;51.270;6.756;2022-10-24T05:55:03;18.40;99.90
2477;DHT22;1249;51.270;6.756;2022-10-24T05:57:31;18.50;99.90
2477;DHT22;1249;51.270;6.756;2022-10-24T05:59:58;18.50;99.90
2477;DHT22;1249;51.270;6.756;2022-10-24T06:02:25;18.60;99.90
2477;DHT22;1249;51.270;6.756;2022-10-24T06:04:52;18.60;99.90
2477;DHT22;1249;51.270;6.756;2022-10-24T06:07:20;18.60;99.90
2477;DHT22;1249;51.270;6.756;2022-10-24T06:09:47;18.60;99.90
2477;DHT22;1249;51.270;6.756;2022-10-24T06:12:14;18.60;99.90
2477;DHT22;1249;51.270;6.756;2022-10-24T06:14:42;18.70;99.90
2477;DHT22;1249;51.270;6.756;2022-10-24T06:17:10;18.70;99.90
2477;DHT22;1249;51.270;6.756;2022-10-24T06:19:37;18.70;99.90
2477;DHT22;1249;51.270;6.756;2022-10-24T06:22:05;18.80;99.90
2477;DHT22;1249;51.270;6.756;2022-10-24T06:24:33;18.80;99.90
2477;DHT22;1249;51.270;6.756;2022-10-24T06:27:00;19.00;99.90
2477;DHT22;1249;51.270;6.756;2022-10-24T06:29:27;18.90;99.90
2477;DHT22;1249;51.270;6.756;2022-10-24T06:31:55;18.90;99.90
2477;DHT22;1249;51.270;6.756;2022-10-24T06:34:22;18.90;99.90
2477;DHT22;1249;51.270;6.756;2022-10-24T06:36:49;18.90;99.90
2477;DHT22;1249;51.270;6.756;2022-10-24T06:39:15;18.90;99.90
2477;DHT22;1249;51.270;6.756;2022-10-24T06:41:42;18.90;99.90
2477;DHT22;1249;51.270;6.756;2022-10-24T06:44:09;18.90;99.90
2477;DHT22;1249;51.270;6.756;2022-10-24T06:46:35;18.90;99.90
2477;DHT22;1249;51.270;6.756;2022-10-24T06:49:03;18.90;99.90
2477;DHT22;1249;51.270;6.756;2022-10-24T06:51:30;18.90;99.90
2477;DHT22;1249;51.270;6.756;2022-10-24T06:53:57;19.00;99.90
2477;DHT22;1249;51.270;6.756;2022-10-24T06:56:24;19.10;99.90
2477;DHT22;1249;51.270;6.756;2022-10-24T06:58:51;19.10;99.90
2477;DHT22;1249;51.270;6.756;2022-10-24T07:01:19;19.10;99.90
2477;DHT22;1249;51.270;6.756;2022-10-24T07:03:46;19.20;99.90
2477;DHT22;1249;51.270;6.756;2022-10-24T07:06:17;19.20;99.90
2477;DHT22;1249;51.270;6.756;2022-10-24T07:08:44;19.30;99.90
2477;DHT22;1249;51.270;6.756;2022-10-24T07:11:11;19.30;99.90
2477;DHT22;1249;51.270;6.756;2022-10-24T07:13:38;19.40;99.90
2477;DHT22;1249;51.270;6.756;2022-10-24T07:16:05;19.40;99.90
2477;DHT22;1249;51.270;6.756;2022-10-24T07:18:32;19.40;99.90
2477;DHT22;1249;51.270;6.756;2022-10-24T07:21:03;19.50;99.90
2477;DHT22;1249;51.270;6.756;2022-10-24T07:23:32;19.50;99.90
2477;DHT22;1249;51.270;6.756;2022-10-24T07:26:03;19.50;99.90
2477;DHT22;1249;51.270;6.756;2022-10-24T07:28:30;19.50;99.90
2477;DHT22;1249;51.270;6.756;2022-10-24T07:30:57;19.60;99.90
2477;DHT22;1249;51.270;6.756;2022-10-24T07:33:25;19.60;99.90
2477;DHT22;1249;51.270;6.756;2022-10-24T07:35:52;19.50;99.90
2477;DHT22;1249;51.270;6.756;2022-10-24T07:38:19;19.60;99.90
2477;DHT22;1249;51.270;6.756;2022-10-24T07:40:47;19.70;99.90
2477;DHT22;1249;51.270;6.756;2022-10-24T07:43:14;19.70;99.90
2477;DHT22;1249;51.270;6.756;2022-10-24T07:45:41;19.70;99.90
2477;DHT22;1249;51.270;6.756;2022-10-24T07:48:08;19.60;99.90
2477;DHT22;1249;51.270;6.756;2022-10-24T07:50:41;19.70;99.90
2477;DHT22;1249;51.270;6.756;2022-10-24T07:53:08;19.70;99.90
2477;DHT22;1249;51.270;6.756;2022-10-24T07:55:37;19.70;99.90
2477;DHT22;1249;51.270;6.756;2022-10-24T07:58:05;19.60;99.90
2477;DHT22;1249;51.270;6.756;2022-10-24T08:00:31;19.70;99.90
2477;DHT22;1249;51.270;6.756;2022-10-24T08:02:58;19.70;99.90
2477;DHT22;1249;51.270;6.756;2022-10-24T08:05:25;19.80;99.90
2477;DHT22;1249;51.270;6.756;2022-10-24T08:07:52;19.80;99.90
2477;DHT22;1249;51.270;6.756;2022-10-24T08:10:19;19.70;99.90
2477;DHT22;1249;51.270;6.756;2022-10-24T08:12:46;19.70;99.90
2477;DHT22;1249;51.270;6.756;2022-10-24T08:15:14;19.60;99.90
2477;DHT22;1249;51.270;6.756;2022-10-24T08:17:40;19.60;99.90
2477;DHT22;1249;51.270;6.756;2022-10-24T08:20:08;19.50;99.90
2477;DHT22;1249;51.270;6.756;2022-10-24T08:22:35;19.40;99.90
2477;DHT22;1249;51.270;6.756;2022-10-24T08:25:04;19.10;99.90
2477;DHT22;1249;51.270;6.756;2022-10-24T08:27:34;19.00;99.90
2477;DHT22;1249;51.270;6.756;2022-10-24T08:30:00;19.10;99.90
2477;DHT22;1249;51.270;6.756;2022-10-24T08:32:28;19.20;99.90
2477;DHT22;1249;51.270;6.756;2022-10-24T08:34:55;19.30;99.90
2477;DHT22;1249;51.270;6.756;2022-10-24T08:37:22;19.20;99.90
2477;DHT22;1249;51.270;6.756;2022-10-24T08:39:49;19.20;99.90
2477;DHT22;1249;51.270;6.756;2022-10-24T08:42:21;19.30;99.90
2477;DHT22;1249;51.270;6.756;2022-10-24T08:44:48;19.30;99.90
2477;DHT22;1249;51.270;6.756;2022-10-24T08:47:20;19.20;99.90
2477;DHT22;1249;51.270;6.756;2022-10-24T08:49:55;19.20;99.90
2477;DHT22;1249;51.270;6.756;2022-10-24T08:52:28;19.30;99.90
2477;DHT22;1249;51.270;6.756;2022-10-24T08:54:59;19.20;99.90
2477;DHT22;1249;51.270;6.756;2022-10-24T08:57:28;19.40;99.90
2477;DHT22;1249;51.270;6.756;2022-10-24T08:59:58;19.40;99.90
2477;DHT22;1249;51.270;6.756;2022-10-24T09:02:27;19.30;99.90
2477;DHT22;1249;51.270;6.756;2022-10-24T09:05:00;19.50;99.90
2477;DHT22;1249;51.270;6.756;2022-10-24T09:07:28;19.50;99.90
2477;DHT22;1249;51.270;6.756;2022-10-24T09:10:02;19.60;99.90
2477;DHT22;1249;51.270;6.756;2022-10-24T09:12:30;19.70;99.90
2477;DHT22;1249;51.270;6.756;2022-10-24T09:14:59;19.90;99.90
2477;DHT22;1249;51.270;6.756;2022-10-24T09:17:29;19.80;99.90
2477;DHT22;1249;51.270;6.756;2022-10-24T09:20:00;19.80;99.90
2477;DHT22;1249;51.270;6.756;2022-10-24T09:22:32;19.50;99.90
2477;DHT22;1249;51.270;6.756;2022-10-24T09:25:01;19.60;99.90
2477;DHT22;1249;51.270;6.756;2022-10-24T09:27:29;19.80;99.90
2477;DHT22;1249;51.270;6.756;2022-10-24T09:29:58;19.90;99.90
2477;DHT22;1249;51.270;6.756;2022-10-24T09:32:27;20.00;99.90
2477;DHT22;1249;51.270;6.756;2022-10-24T09:34:58;20.00;99.90
2477;DHT22;1249;51.270;6.756;2022-10-24T09:37:35;20.10;99.90
2477;DHT22;1249;51.270;6.756;2022-10-24T09:40:10;20.20;99.90
2477;DHT22;1249;51.270;6.756;2022-10-24T09:42:38;20.20;99.90
2477;DHT22;1249;51.270;6.756;2022-10-24T09:45:38;20.40;99.90
2477;DHT22;1249;51.270;6.756;2022-10-24T09:48:15;20.60;99.90
2477;DHT22;1249;51.270;6.756;2022-10-24T09:50:45;21.10;99.90
2477;DHT22;1249;51.270;6.756;2022-10-24T09:53:22;21.90;99.90
2477;DHT22;1249;51.270;6.756;2022-10-24T09:55:51;22.60;99.90
2477;DHT22;1249;51.270;6.756;2022-10-24T09:58:20;22.70;99.90
2477;DHT22;1249;51.270;6.756;2022-10-24T10:00:56;22.20;99.90
2477;DHT22;1249;51.270;6.756;2022-10-24T10:03:23;21.80;99.90
2477;DHT22;1249;51.270;6.756;2022-10-24T10:05:53;21.70;99.90
2477;DHT22;1249;51.270;6.756;2022-10-24T10:08:22;21.60;99.90
2477;DHT22;1249;51.270;6.756;2022-10-24T10:10:56;21.40;99.90
2477;DHT22;1249;51.270;6.756;2022-10-24T10:13:25;21.30;99.90
2477;DHT22;1249;51.270;6.756;2022-10-24T10:15:53;21.50;99.90
2477;DHT22;1249;51.270;6.756;2022-10-24T10:18:27;21.10;99.90
2477;DHT22;1249;51.270;6.756;2022-10-24T10:21:09;21.00;99.90
2477;DHT22;1249;51.270;6.756;2022-10-24T10:23:39;21.00;99.90
2477;DHT22;1249;51.270;6.756;2022-10-24T10:26:19;21.00;99.90
2477;DHT22;1249;51.270;6.756;2022-10-24T10:28:52;21.00;99.90
2477;DHT22;1249;51.270;6.756;2022-10-24T10:31:22;20.80;99.90
2477;DHT22;1249;51.270;6.756;2022-10-24T10:34:03;20.80;99.90
2477;DHT22;1249;51.270;6.756;2022-10-24T10:36:40;20.80;99.90
2477;DHT22;1249;51.270;6.756;2022-10-24T10:39:29;21.10;99.90
2477;DHT22;1249;51.270;6.756;2022-10-24T10:42:02;20.80;99.90
2477;DHT22;1249;51.270;6.756;2022-10-24T10:44:41;20.60;99.90
2477;DHT22;1249;51.270;6.756;2022-10-24T10:47:20;20.50;99.90
2477;DHT22;1249;51.270;6.756;2022-10-24T10:49:53;20.60;99.90
2477;DHT22;1249;51.270;6.756;2022-10-24T10:52:24;20.80;99.90
2477;DHT22;1249;51.270;6.756;2022-10-24T10:55:10;20.90;99.90
2477;DHT22;1249;51.270;6.756;2022-10-24T10:57:48;20.90;99.90
2477;DHT22;1249;51.270;6.756;2022-10-24T11:00:20;20.80;99.90
2477;DHT22;1249;51.270;6.756;2022-10-24T11:03:01;20.90;99.90
2477;DHT22;1249;51.270;6.756;2022-10-24T11:05:46;20.90;99.90
2477;DHT22;1249;51.270;6.756;2022-10-24T11:08:34;21.00;99.90
2477;DHT22;1249;51.270;6.756;2022-10-24T11:11:07;21.00;99.90
2477;DHT22;1249;51.270;6.756;2022-10-24T11:13:40;21.00;99.90
2477;DHT22;1249;51.270;6.756;2022-10-24T11:16:11;21.10;99.90
2477;DHT22;1249;51.270;6.756;2022-10-24T11:18:42;21.20;99.90
2477;DHT22;1249;51.270;6.756;2022-10-24T11:21:12;21.20;99.90
2477;DHT22;1249;51.270;6.756;2022-10-24T11:23:43;21.20;99.90
2477;DHT22;1249;51.270;6.756;2022-10-24T11:26:15;21.20;99.90
2477;DHT22;1249;51.270;6.756;2022-10-24T11:28:51;21.20;99.90
2477;DHT22;1249;51.270;6.756;2022-10-24T11:31:21;21.10;99.90
2477;DHT22;1249;51.270;6.756;2022-10-24T11:33:52;21.20;99.90
2477;DHT22;1249;51.270;6.756;2022-10-24T11:36:25;21.00;99.90
2477;DHT22;1249;51.270;6.756;2022-10-24T11:38:57;21.00;99.90
2477;DHT22;1249;51.270;6.756;2022-10-24T11:41:39;20.80;99.90
2477;DHT22;1249;51.270;6.756;2022-10-24T11:44:25;20.80;99.90
2477;DHT22;1249;51.270;6.756;2022-10-24T11:47:03;20.80;99.90
2477;DHT22;1249;51.270;6.756;2022-10-24T11:49:34;20.80;99.90
2477;DHT22;1249;51.270;6.756;2022-10-24T11:52:07;20.60;99.90
2477;DHT22;1249;51.270;6.756;2022-10-24T11:54:42;20.70;99.90
2477;DHT22;1249;51.270;6.756;2022-10-24T11:57:17;20.60;99.90
2477;DHT22;1249;51.270;6.756;2022-10-24T11:59:46;20.60;99.90
2477;DHT22;1249;51.270;6.756;2022-10-24T12:02:44;20.70;99.90
2477;DHT22;1249;51.270;6.756;2022-10-24T12:05:25;20.70;99.90
2477;DHT22;1249;51.270;6.756;2022-10-24T12:08:22;20.80;99.90
2477;DHT22;1249;51.270;6.756;2022-10-24T12:11:06;20.60;99.90
2477;DHT22;1249;51.270;6.756;2022-10-24T12:16:55;20.70;99.90
2477;DHT22;1249;51.270;6.756;2022-10-24T12:19:27;20.40;99.90
2477;DHT22;1249;51.270;6.756;2022-10-24T12:21:56;20.50;99.90
2477;DHT22;1249;51.270;6.756;2022-10-24T12:24:28;20.70;99.90
2477;DHT22;1249;51.270;6.756;2022-10-24T12:26:59;20.70;99.90
2477;DHT22;1249;51.270;6.756;2022-10-24T12:29:28;20.70;99.90
2477;DHT22;1249;51.270;6.756;2022-10-24T12:31:58;21.00;99.90
2477;DHT22;1249;51.270;6.756;2022-10-24T12:34:36;21.20;99.90
2477;DHT22;1249;51.270;6.756;2022-10-24T12:37:10;21.10;99.90
2477;DHT22;1249;51.270;6.756;2022-10-24T12:39:38;21.40;99.90
2477;DHT22;1249;51.270;6.756;2022-10-24T12:42:14;21.50;99.90
2477;DHT22;1249;51.270;6.756;2022-10-24T12:44:42;21.60;99.90
2477;DHT22;1249;51.270;6.756;2022-10-24T12:47:31;21.50;99.90
2477;DHT22;1249;51.270;6.756;2022-10-24T12:53:16;21.80;99.90
2477;DHT22;1249;51.270;6.756;2022-10-24T12:56:09;21.80;99.90
2477;DHT22;1249;51.270;6.756;2022-10-24T12:58:38;21.70;99.90
2477;DHT22;1249;51.270;6.756;2022-10-24T13:01:10;21.90;99.90
2477;DHT22;1249;51.270;6.756;2022-10-24T13:03:53;22.10;99.90
2477;DHT22;1249;51.270;6.756;2022-10-24T13:06:27;22.10;99.90
2477;DHT22;1249;51.270;6.756;2022-10-24T13:09:08;22.20;99.90
2477;DHT22;1249;51.270;6.756;2022-10-24T13:11:50;22.80;99.90
2477;DHT22;1249;51.270;6.756;2022-10-24T13:14:32;23.10;96.90
2477;DHT22;1249;51.270;6.756;2022-10-24T13:17:07;23.70;96.20
2477;DHT22;1249;51.270;6.756;2022-10-24T13:19:37;23.60;95.10
2477;DHT22;1249;51.270;6.756;2022-10-24T13:22:04;23.80;96.20
2477;DHT22;1249;51.270;6.756;2022-10-24T13:24:33;23.80;94.40
2477;DHT22;1249;51.270;6.756;2022-10-24T13:27:26;23.20;92.00
2477;DHT22;1249;51.270;6.756;2022-10-24T13:33:37;23.70;94.50
2477;DHT22;1249;51.270;6.756;2022-10-24T13:36:11;23.70;91.60
2477;DHT22;1249;51.270;6.756;2022-10-24T13:38:44;23.90;91.80
2477;DHT22;1249;51.270;6.756;2022-10-24T13:41:19;24.20;93.00
2477;DHT22;1249;51.270;6.756;2022-10-24T13:43:48;24.30;92.70
2477;DHT22;1249;51.270;6.756;2022-10-24T13:46:24;24.20;93.30
2477;DHT22;1249;51.270;6.756;2022-10-24T13:48:53;24.00;91.80
2477;DHT22;1249;51.270;6.756;2022-10-24T13:51:34;23.80;90.60
2477;DHT22;1249;51.270;6.756;2022-10-24T13:54:07;23.40;92.40
2477;DHT22;1249;51.270;6.756;2022-10-24T13:56:36;23.20;92.50
2477;DHT22;1249;51.270;6.756;2022-10-24T13:59:03;22.80;92.30
2477;DHT22;1249;51.270;6.756;2022-10-24T14:01:32;22.90;93.80
2477;DHT22;1249;51.270;6.756;2022-10-24T14:04:02;22.80;94.50
2477;DHT22;1249;51.270;6.756;2022-10-24T14:06:30;22.80;94.10
2477;DHT22;1249;51.270;6.756;2022-10-24T14:09:00;23.00;95.00
2477;DHT22;1249;51.270;6.756;2022-10-24T14:11:28;22.90;94.00
2477;DHT22;1249;51.270;6.756;2022-10-24T14:13:57;23.00;94.70
2477;DHT22;1249;51.270;6.756;2022-10-24T14:16:25;23.20;95.20
2477;DHT22;1249;51.270;6.756;2022-10-24T14:19:10;23.20;92.90
2477;DHT22;1249;51.270;6.756;2022-10-24T14:21:40;23.20;93.80
2477;DHT22;1249;51.270;6.756;2022-10-24T14:24:12;23.20;93.60
2477;DHT22;1249;51.270;6.756;2022-10-24T14:26:40;23.10;95.00
2477;DHT22;1249;51.270;6.756;2022-10-24T14:29:18;23.10;95.00
2477;DHT22;1249;51.270;6.756;2022-10-24T14:31:53;23.10;96.40
2477;DHT22;1249;51.270;6.756;2022-10-24T14:34:22;22.90;94.90
2477;DHT22;1249;51.270;6.756;2022-10-24T14:36:49;22.90;95.60
2477;DHT22;1249;51.270;6.756;2022-10-24T14:39:16;22.90;95.70
2477;DHT22;1249;51.270;6.756;2022-10-24T14:41:48;23.00;97.60
2477;DHT22;1249;51.270;6.756;2022-10-24T14:44:17;23.00;97.60
2477;DHT22;1249;51.270;6.756;2022-10-24T14:47:00;23.10;98.00
2477;DHT22;1249;51.270;6.756;2022-10-24T14:49:31;23.00;97.70
2477;DHT22;1249;51.270;6.756;2022-10-24T14:52:00;22.90;98.00
2477;DHT22;1249;51.270;6.756;2022-10-24T14:54:34;22.90;98.60
2477;DHT22;1249;51.270;6.756;2022-10-24T14:57:03;22.80;98.50
2477;DHT22;1249;51.270;6.756;2022-10-24T14:59:31;22.70;98.60
2477;DHT22;1249;51.270;6.756;2022-10-24T15:02:01;22.70;99.30
2477;DHT22;1249;51.270;6.756;2022-10-24T15:04:36;22.60;99.00
2477;DHT22;1249;51.270;6.756;2022-10-24T15:07:14;22.60;99.20
2477;DHT22;1249;51.270;6.756;2022-10-24T15:09:56;22.40;99.90
2477;DHT22;1249;51.270;6.756;2022-10-24T15:12:26;22.20;99.90
2477;DHT22;1249;51.270;6.756;2022-10-24T15:14:53;22.40;99.90
2477;DHT22;1249;51.270;6.756;2022-10-24T15:17:28;22.00;99.90
2477;DHT22;1249;51.270;6.756;2022-10-24T15:19:58;21.90;99.30
2477;DHT22;1249;51.270;6.756;2022-10-24T15:22:28;21.90;99.90
2477;DHT22;1249;51.270;6.756;2022-10-24T15:24:57;21.80;99.90
2477;DHT22;1249;51.270;6.756;2022-10-24T15:27:26;21.80;99.90
2477;DHT22;1249;51.270;6.756;2022-10-24T15:29:54;21.80;99.90
2477;DHT22;1249;51.270;6.756;2022-10-24T15:32:21;21.70;99.90
2477;DHT22;1249;51.270;6.756;2022-10-24T15:34:51;21.60;99.90
2477;DHT22;1249;51.270;6.756;2022-10-24T15:37:21;21.60;99.90
2477;DHT22;1249;51.270;6.756;2022-10-24T15:39:49;21.50;99.90
2477;DHT22;1249;51.270;6.756;2022-10-24T15:42:16;21.50;99.90
2477;DHT22;1249;51.270;6.756;2022-10-24T15:44:42;21.40;99.90
2477;DHT22;1249;51.270;6.756;2022-10-24T15:47:09;21.30;99.90
2477;DHT22;1249;51.270;6.756;2022-10-24T15:49:36;21.30;99.90
2477;DHT22;1249;51.270;6.756;2022-10-24T15:52:06;21.30;99.90
2477;DHT22;1249;51.270;6.756;2022-10-24T15:54:34;21.20;99.90
2477;DHT22;1249;51.270;6.756;2022-10-24T15:57:01;21.20;99.90
2477;DHT22;1249;51.270;6.756;2022-10-24T15:59:27;21.20;99.90
2477;DHT22;1249;51.270;6.756;2022-10-24T16:01:55;21.20;99.90
2477;DHT22;1249;51.270;6.756;2022-10-24T16:04:24;21.10;99.90
2477;DHT22;1249;51.270;6.756;2022-10-24T16:06:52;21.10;99.90
2477;DHT22;1249;51.270;6.756;2022-10-24T16:09:21;21.10;99.90
2477;DHT22;1249;51.270;6.756;2022-10-24T16:11:49;21.10;99.90
2477;DHT22;1249;51.270;6.756;2022-10-24T16:14:18;21.00;99.90
2477;DHT22;1249;51.270;6.756;2022-10-24T16:16:46;21.00;99.90
2477;DHT22;1249;51.270;6.756;2022-10-24T16:19:13;20.90;99.90
2477;DHT22;1249;51.270;6.756;2022-10-24T16:21:40;20.90;99.90
2477;DHT22;1249;51.270;6.756;2022-10-24T16:24:08;20.90;99.90
2477;DHT22;1249;51.270;6.756;2022-10-24T16:26:35;20.80;99.90
2477;DHT22;1249;51.270;6.756;2022-10-24T16:29:04;20.70;99.90
2477;DHT22;1249;51.270;6.756;2022-10-24T16:31:31;20.70;99.90
2477;DHT22;1249;51.270;6.756;2022-10-24T16:33:58;20.70;99.90
2477;DHT22;1249;51.270;6.756;2022-10-24T16:36:25;20.70;99.90
2477;DHT22;1249;51.270;6.756;2022-10-24T16:38:52;20.60;99.90